Eliporto Vico del Gargano

IT-0579 · 普利亚, 意大利

使用的METAR站距离机场45 km。
罗盘
风向 的 风向 230° 直升机
风: 3 kt, 1 beaufort
0 ft 1.000 2.000 3.000 4.000 5.000
CAVOK
METAR LIBA 150955Z 23003KT CAVOK 38/13 Q1012 RMK SKC VIS MIN 9999 WIND THR11 23005KT WIND THR29 /////KT BLU

METAR Eliporto Vico del Gargano - IT-0579

Eliporto Vico del Gargano是,意大利中的直升机场。 该机场位于纬度41,89480和经度15,96401。 这个机场没有ICAO代码,我们使用IT-0579作为参考。 机场在Brindisi FIR中。

该航空气象观测是针对Amendola Air Base在2024年7月15日 11:55, 当地时间进行的。

机场观察

风向为230°,速度为3 kt。

天气为CAVOK。这意味着在5.000 ft或MSA(最低安全高度)以下(以较高者为准)以下没有云。这也意味着没有观测到积雨云或高耸的积云,可见度为10 km 或者更多或更高。此外,不会有雾,降雨或其他重要天气。

温度和风寒是38 °C。 露点为13 °C,相对湿度为22%。 海平面上的气压为1012 hPa (QNH)。

白天

今天,太阳从05:34升起,在20:29降落。 这适用于Eliporto Vico del Gargano,世界夏令时可能有所不同。 当地时间与世界标准时间之间的时差为+2 小时。 夏令时目前正在进行中。

公司介绍

我们没有关于这个机场的公司信息。

体会

到Vliegles.nl去找飞行课程,跳伞和其他飞行体验。 浏览页面,了解Eliporto Vico del Gargano附近所有可用的活动。 你也可以使用搜索功能来寻找你所在地附近的特定飞行课程、跳伞或其他飞行体验。

温度 & 天气

温度 38 °C
露点 13 °C
相对湿度 22%
Kp-index 1 (0-9)

评论

SKC VIS MIN 9999 WIND THR11 23005KT WIND THR29 /////KT

白天

日出
05:36
中午
13:03
日落
20:29 (7:51)

小工具

你想在你的网站上有一个关于Eliporto Vico del Gargano的当前航空天气(METAR)的小部件吗?

显示HTML代码
报告变更